createdAt,value
2017-06-29T00:00:21.202Z,21.49
2017-06-29T00:01:30.252Z,21.5
2017-06-29T00:02:39.757Z,21.47
2017-06-29T00:03:48.933Z,21.46
2017-06-29T00:04:58.333Z,21.42
2017-06-29T00:06:07.794Z,21.42
2017-06-29T00:07:17.069Z,21.49
2017-06-29T00:08:26.228Z,21.47
2017-06-29T00:09:35.577Z,21.42
2017-06-29T00:10:44.820Z,21.44
2017-06-29T00:11:54.250Z,21.46
2017-06-29T00:13:03.317Z,21.43
2017-06-29T00:14:12.423Z,21.44
2017-06-29T00:15:21.597Z,21.46
2017-06-29T00:16:30.627Z,21.4
2017-06-29T00:17:40.103Z,21.34
2017-06-29T00:18:49.083Z,21.43
2017-06-29T00:19:59.034Z,21.43
2017-06-29T00:21:08.307Z,21.43
2017-06-29T00:22:17.481Z,21.34
2017-06-29T00:23:27.090Z,21.35
2017-06-29T00:24:36.542Z,21.34
2017-06-29T00:25:45.701Z,21.35
2017-06-29T00:26:54.826Z,21.37
2017-06-29T00:28:03.778Z,21.37
2017-06-29T00:29:13.039Z,21.31
2017-06-29T00:30:21.988Z,21.31
2017-06-29T00:31:30.938Z,21.34
2017-06-29T00:32:39.896Z,21.4
2017-06-29T00:33:48.848Z,21.34
2017-06-29T00:34:58.046Z,21.25
2017-06-29T00:36:06.997Z,21.31
2017-06-29T00:37:16.274Z,21.24
2017-06-29T00:38:25.222Z,21.37
2017-06-29T00:39:34.172Z,21.32
2017-06-29T00:40:43.434Z,21.27
2017-06-29T00:41:52.381Z,21.24
2017-06-29T00:43:01.338Z,21.29
2017-06-29T00:44:10.300Z,21.29
2017-06-29T00:45:19.250Z,21.31
2017-06-29T00:46:28.578Z,21.24
2017-06-29T00:47:37.530Z,21.21
2017-06-29T00:48:46.506Z,21.27
2017-06-29T00:49:55.460Z,21.25
2017-06-29T00:51:04.413Z,21.24
2017-06-29T00:52:13.622Z,21.25
2017-06-29T00:53:22.569Z,21.25
2017-06-29T00:54:31.525Z,21.27
2017-06-29T00:55:40.477Z,21.25
2017-06-29T00:56:49.430Z,21.17
2017-06-29T00:57:58.950Z,21.14
2017-06-29T00:59:07.910Z,21.22
2017-06-29T01:00:16.942Z,21.14
2017-06-29T01:01:25.898Z,21.17
2017-06-29T01:02:34.863Z,21.21
2017-06-29T01:03:44.156Z,21.22
2017-06-29T01:04:53.116Z,21.19
2017-06-29T01:06:02.147Z,21.13
2017-06-29T01:07:11.105Z,21.24
2017-06-29T01:08:20.389Z,21.12
2017-06-29T01:09:29.652Z,21.25
2017-06-29T01:10:38.604Z,21.12
2017-06-29T01:11:47.556Z,21.16
2017-06-29T01:12:56.508Z,21.14
2017-06-29T01:14:05.462Z,21.1
2017-06-29T01:15:14.718Z,21.16
2017-06-29T01:16:23.667Z,21.16
2017-06-29T01:17:32.713Z,21.1
2017-06-29T01:18:41.660Z,21.1
2017-06-29T01:19:50.611Z,21.14
2017-06-29T01:20:59.874Z,21.16
2017-06-29T01:22:08.828Z,21.09
2017-06-29T01:23:17.793Z,21.14
2017-06-29T01:24:26.745Z,21.09
2017-06-29T01:25:35.693Z,21.04
2017-06-29T01:26:44.983Z,21.03
2017-06-29T01:27:53.939Z,21.03
2017-06-29T01:29:02.896Z,21.01
2017-06-29T01:30:11.932Z,21.09
2017-06-29T01:31:20.886Z,21.1
2017-06-29T01:32:30.097Z,21.03
2017-06-29T01:33:39.045Z,20.97
2017-06-29T01:34:47.997Z,21.01
2017-06-29T01:35:56.950Z,20.99
2017-06-29T01:37:05.910Z,21.06
2017-06-29T01:38:15.114Z,20.97
2017-06-29T01:39:24.075Z,20.99
2017-06-29T01:40:33.022Z,20.95
2017-06-29T01:41:41.979Z,20.99
2017-06-29T01:42:50.936Z,20.97
2017-06-29T01:44:00.189Z,20.98
2017-06-29T01:45:09.569Z,21.06
2017-06-29T01:46:18.524Z,21.03
2017-06-29T01:47:27.484Z,20.99
2017-06-29T01:48:36.447Z,20.99
2017-06-29T01:49:45.981Z,20.98
2017-06-29T01:50:54.932Z,20.95
2017-06-29T01:52:03.895Z,20.91
2017-06-29T01:53:12.843Z,20.99
2017-06-29T01:54:21.804Z,20.91
2017-06-29T01:55:31.059Z,20.95
2017-06-29T01:56:40.008Z,20.94
2017-06-29T01:57:49.287Z,20.91
2017-06-29T01:58:58.242Z,20.94
2017-06-29T02:00:07.201Z,20.87
2017-06-29T02:01:16.406Z,20.94
2017-06-29T02:02:25.354Z,20.85
2017-06-29T02:03:34.303Z,20.97
2017-06-29T02:04:43.252Z,20.84
2017-06-29T02:05:52.211Z,20.91
2017-06-29T02:07:01.416Z,20.92
2017-06-29T02:08:10.356Z,20.82
2017-06-29T02:09:19.313Z,20.84
2017-06-29T02:10:28.260Z,20.91
2017-06-29T02:11:37.211Z,20.89
2017-06-29T02:12:46.788Z,20.77
2017-06-29T02:13:55.738Z,20.82
2017-06-29T02:15:04.685Z,20.8
2017-06-29T02:16:13.637Z,20.84
2017-06-29T02:17:22.588Z,20.87
2017-06-29T02:18:31.955Z,20.89
2017-06-29T02:19:40.904Z,20.87
2017-06-29T02:20:50.187Z,20.88
2017-06-29T02:21:59.135Z,20.88
2017-06-29T02:23:08.077Z,20.88
2017-06-29T02:24:17.337Z,20.8
2017-06-29T02:25:26.284Z,20.87
2017-06-29T02:26:35.234Z,20.79
2017-06-29T02:27:44.278Z,20.82
2017-06-29T02:28:53.230Z,20.87
2017-06-29T02:30:02.429Z,20.84
2017-06-29T02:31:11.705Z,20.79
2017-06-29T02:32:20.696Z,20.77
2017-06-29T02:33:29.658Z,20.76
2017-06-29T02:34:38.614Z,20.79
2017-06-29T02:35:47.822Z,20.73
2017-06-29T02:36:56.771Z,20.84
2017-06-29T02:38:05.726Z,20.74
2017-06-29T02:39:14.680Z,20.79
2017-06-29T02:40:23.627Z,20.73
2017-06-29T02:41:32.835Z,20.76
2017-06-29T02:42:41.782Z,20.76
2017-06-29T02:43:50.735Z,20.69
2017-06-29T02:44:59.685Z,20.73
2017-06-29T02:46:08.653Z,20.7
2017-06-29T02:47:17.939Z,20.69
2017-06-29T02:48:26.891Z,20.76
2017-06-29T02:49:35.842Z,20.73
2017-06-29T02:50:44.793Z,20.76
2017-06-29T02:51:54.064Z,20.69
2017-06-29T02:53:03.257Z,20.7
2017-06-29T02:54:12.216Z,20.76
2017-06-29T02:55:21.201Z,20.7
2017-06-29T02:56:30.152Z,20.77
2017-06-29T02:57:39.104Z,20.79
2017-06-29T02:58:48.361Z,20.77
2017-06-29T02:59:57.308Z,20.69
2017-06-29T03:01:06.269Z,20.67
2017-06-29T03:02:15.223Z,20.79
2017-06-29T03:03:24.169Z,20.72
2017-06-29T03:04:33.368Z,20.7
2017-06-29T03:05:42.322Z,20.66
2017-06-29T03:06:51.267Z,20.67
2017-06-29T03:08:00.229Z,20.64
2017-06-29T03:09:09.189Z,20.69
2017-06-29T03:10:18.393Z,20.64
2017-06-29T03:11:27.344Z,20.59
2017-06-29T03:12:36.293Z,20.55
2017-06-29T03:13:45.243Z,20.58
2017-06-29T03:14:54.209Z,20.57
2017-06-29T03:16:03.414Z,20.58
2017-06-29T03:17:12.365Z,20.59
2017-06-29T03:18:21.333Z,20.7
2017-06-29T03:19:30.291Z,20.69
2017-06-29T03:20:39.245Z,20.59
2017-06-29T03:21:48.449Z,20.72
2017-06-29T03:22:57.400Z,20.59
2017-06-29T03:24:06.679Z,20.61
2017-06-29T03:25:15.628Z,20.72
2017-06-29T03:26:24.577Z,20.72
2017-06-29T03:27:33.777Z,20.69
2017-06-29T03:28:42.733Z,20.72
2017-06-29T03:29:51.684Z,20.76
2017-06-29T03:31:00.643Z,20.74
2017-06-29T03:32:09.594Z,20.69
2017-06-29T03:33:18.795Z,20.72
2017-06-29T03:34:27.750Z,20.69
2017-06-29T03:35:36.706Z,20.67
2017-06-29T03:36:45.663Z,20.67
2017-06-29T03:37:54.616Z,20.61
2017-06-29T03:39:03.815Z,20.62
2017-06-29T03:40:12.763Z,20.64
2017-06-29T03:41:21.716Z,20.59
2017-06-29T03:42:30.662Z,20.62
2017-06-29T03:43:39.605Z,20.72
2017-06-29T03:44:48.864Z,20.72
2017-06-29T03:45:57.811Z,20.72
2017-06-29T03:47:06.763Z,20.73
2017-06-29T03:48:16.057Z,20.74
2017-06-29T03:49:25.019Z,20.76
2017-06-29T03:50:34.593Z,20.72
2017-06-29T03:51:43.543Z,20.79
2017-06-29T03:52:52.489Z,20.74
2017-06-29T03:54:01.454Z,20.73
2017-06-29T03:55:10.400Z,20.74
2017-06-29T03:56:19.658Z,20.8
2017-06-29T03:57:28.607Z,20.7
2017-06-29T03:58:37.563Z,20.74
2017-06-29T03:59:46.516Z,20.74
2017-06-29T04:00:55.465Z,20.73
2017-06-29T04:02:04.670Z,20.79
2017-06-29T04:03:13.702Z,20.8
2017-06-29T04:04:22.660Z,20.72
2017-06-29T04:05:31.608Z,20.8
2017-06-29T04:06:40.557Z,20.77
2017-06-29T04:07:49.761Z,20.74
2017-06-29T04:08:58.794Z,20.82
2017-06-29T04:10:07.744Z,20.76
2017-06-29T04:11:16.703Z,20.69
2017-06-29T04:12:25.655Z,20.76
2017-06-29T04:13:34.851Z,20.7
2017-06-29T04:14:43.810Z,20.73
2017-06-29T04:15:52.783Z,20.73
2017-06-29T04:17:01.733Z,20.72
2017-06-29T04:18:10.694Z,20.73
2017-06-29T04:19:19.900Z,20.72
2017-06-29T04:20:28.862Z,20.72
2017-06-29T04:21:37.816Z,20.76
2017-06-29T04:22:46.777Z,20.73
2017-06-29T04:23:55.720Z,20.7
2017-06-29T04:25:04.925Z,20.74
2017-06-29T04:26:13.922Z,20.7
2017-06-29T04:27:22.867Z,20.66
2017-06-29T04:28:31.815Z,20.73
2017-06-29T04:29:40.770Z,20.74
2017-06-29T04:30:49.970Z,20.7
2017-06-29T04:31:58.930Z,20.7
2017-06-29T04:33:07.882Z,20.79
2017-06-29T04:34:16.834Z,20.67
2017-06-29T04:35:25.845Z,20.77
2017-06-29T04:36:35.037Z,20.76
2017-06-29T04:37:44.038Z,20.73
2017-06-29T04:38:52.990Z,20.79
2017-06-29T04:40:01.945Z,20.7
2017-06-29T04:41:10.902Z,20.77
2017-06-29T04:42:20.518Z,20.76
2017-06-29T04:43:29.469Z,20.82
2017-06-29T04:44:38.430Z,20.74
2017-06-29T04:45:47.385Z,20.74
2017-06-29T04:46:56.661Z,20.72
2017-06-29T04:48:05.871Z,20.79
2017-06-29T04:49:15.161Z,20.79
2017-06-29T04:50:24.123Z,20.72
2017-06-29T04:51:33.083Z,20.73
2017-06-29T04:52:42.031Z,20.72
2017-06-29T04:53:51.645Z,20.61
2017-06-29T04:55:01.238Z,20.73
2017-06-29T04:56:10.190Z,20.57
2017-06-29T04:57:19.146Z,20.64
2017-06-29T04:58:28.128Z,20.59
2017-06-29T04:59:37.330Z,20.55
2017-06-29T05:00:46.276Z,20.64
2017-06-29T05:01:55.225Z,20.62
2017-06-29T05:03:04.180Z,20.61
2017-06-29T05:04:13.134Z,20.62
2017-06-29T05:05:22.476Z,20.62
2017-06-29T05:06:31.427Z,20.58
2017-06-29T05:07:40.383Z,20.66
2017-06-29T05:08:49.342Z,20.58
2017-06-29T05:09:58.305Z,20.64
2017-06-29T05:11:07.508Z,20.7
2017-06-29T05:12:16.465Z,20.62
2017-06-29T05:13:25.416Z,20.69
2017-06-29T05:14:34.399Z,20.69
2017-06-29T05:15:43.362Z,20.76
2017-06-29T05:16:52.567Z,20.67
2017-06-29T05:18:01.525Z,20.73
2017-06-29T05:19:10.480Z,20.66
2017-06-29T05:20:19.751Z,20.61
2017-06-29T05:21:28.705Z,20.66
2017-06-29T05:22:37.906Z,20.59
2017-06-29T05:23:46.854Z,20.59
2017-06-29T05:24:55.804Z,20.57
2017-06-29T05:26:04.757Z,20.61
2017-06-29T05:27:13.705Z,20.62
2017-06-29T05:28:23.190Z,20.47
2017-06-29T05:29:32.183Z,20.52
2017-06-29T05:30:41.832Z,20.51
2017-06-29T05:31:50.920Z,20.51
2017-06-29T05:33:00.018Z,20.51
2017-06-29T05:34:09.638Z,20.5
2017-06-29T05:35:18.818Z,20.57
2017-06-29T05:36:27.969Z,20.62
2017-06-29T05:37:36.925Z,20.61
2017-06-29T05:38:46.055Z,20.58
2017-06-29T05:39:55.313Z,20.67
2017-06-29T05:41:04.603Z,20.76
2017-06-29T05:42:13.788Z,20.73
2017-06-29T05:43:23.281Z,20.77
2017-06-29T05:44:32.495Z,20.74
2017-06-29T05:45:42.074Z,20.79
2017-06-29T05:46:51.288Z,20.85
2017-06-29T05:48:00.316Z,20.92
2017-06-29T05:49:10.259Z,20.91
2017-06-29T05:50:19.492Z,20.88
2017-06-29T05:51:28.931Z,20.95
2017-06-29T05:52:38.283Z,20.99
2017-06-29T05:53:47.291Z,21.01
2017-06-29T05:54:56.432Z,21.09
2017-06-29T05:56:05.455Z,21.07
2017-06-29T05:57:14.748Z,21.06
2017-06-29T05:58:23.833Z,21.1
2017-06-29T05:59:32.926Z,21.14
2017-06-29T06:00:42.208Z,21.16
2017-06-29T06:01:51.193Z,21.17
2017-06-29T06:03:00.630Z,21.27
2017-06-29T06:04:09.993Z,21.17
2017-06-29T06:05:19.157Z,21.21
2017-06-29T06:06:28.196Z,21.34
2017-06-29T06:07:37.369Z,21.35
2017-06-29T06:08:47.267Z,21.4
2017-06-29T06:09:56.470Z,21.47
2017-06-29T06:11:05.941Z,21.44
2017-06-29T06:12:15.174Z,21.47
2017-06-29T06:13:24.565Z,21.44
2017-06-29T06:14:33.935Z,21.47
2017-06-29T06:15:43.747Z,21.46
2017-06-29T06:16:52.798Z,21.54
2017-06-29T06:18:01.754Z,21.56
2017-06-29T06:19:10.797Z,21.61
2017-06-29T06:20:20.001Z,21.61
2017-06-29T06:21:28.948Z,21.58
2017-06-29T06:22:38.113Z,21.61
2017-06-29T06:23:47.487Z,21.65
2017-06-29T06:24:56.630Z,21.8
2017-06-29T06:26:06.661Z,21.8
2017-06-29T06:27:16.082Z,21.8
2017-06-29T06:28:25.076Z,21.75
2017-06-29T06:29:34.167Z,21.88
2017-06-29T06:30:43.224Z,21.84
2017-06-29T06:31:52.440Z,21.86
2017-06-29T06:33:01.395Z,21.84
2017-06-29T06:34:10.344Z,21.98
2017-06-29T06:35:19.625Z,22.07
2017-06-29T06:36:28.573Z,22.07
2017-06-29T06:37:37.769Z,22.14
2017-06-29T06:38:46.723Z,22.2
2017-06-29T06:39:55.676Z,22.18
2017-06-29T06:41:04.634Z,22.25
2017-06-29T06:42:13.584Z,22.2
2017-06-29T06:43:22.843Z,22.33
2017-06-29T06:44:31.887Z,22.39
2017-06-29T06:45:40.845Z,22.4
2017-06-29T06:46:49.798Z,22.43
2017-06-29T06:47:58.755Z,22.46
2017-06-29T06:49:08.092Z,22.47
2017-06-29T06:50:17.133Z,22.51
2017-06-29T06:51:26.093Z,22.47
2017-06-29T06:52:35.230Z,22.52
2017-06-29T06:53:44.276Z,22.55
2017-06-29T06:54:53.603Z,22.52
2017-06-29T06:56:02.551Z,22.54
2017-06-29T06:57:11.506Z,22.57
2017-06-29T06:58:20.456Z,22.51
2017-06-29T06:59:29.412Z,22.47
2017-06-29T07:00:38.615Z,22.57
2017-06-29T07:01:47.567Z,22.52
2017-06-29T07:02:56.524Z,22.52
2017-06-29T07:04:05.482Z,22.57
2017-06-29T07:05:14.536Z,22.52
2017-06-29T07:06:23.787Z,22.46
2017-06-29T07:07:33.161Z,22.55
2017-06-29T07:08:42.113Z,22.57
2017-06-29T07:09:51.072Z,22.54
2017-06-29T07:11:00.017Z,22.62
2017-06-29T07:12:09.224Z,22.65
2017-06-29T07:13:18.274Z,22.7
2017-06-29T07:14:27.395Z,22.73
2017-06-29T07:15:36.628Z,22.75
2017-06-29T07:16:45.827Z,22.73
2017-06-29T07:17:55.052Z,22.8
2017-06-29T07:19:04.268Z,22.72
2017-06-29T07:20:13.270Z,22.68
2017-06-29T07:21:22.496Z,22.73
2017-06-29T07:22:31.445Z,22.76
2017-06-29T07:23:40.831Z,22.75
2017-06-29T07:24:49.782Z,22.9
2017-06-29T07:25:59.112Z,22.79
2017-06-29T07:27:08.189Z,22.92
2017-06-29T07:28:17.147Z,22.98
2017-06-29T07:29:26.357Z,23.07
2017-06-29T07:30:35.422Z,23.09
2017-06-29T07:31:44.378Z,23.13
2017-06-29T07:32:53.545Z,23.12
2017-06-29T07:34:02.540Z,23.12
2017-06-29T07:35:11.791Z,23.16
2017-06-29T07:36:21.114Z,23.09
2017-06-29T07:37:30.322Z,23.05
2017-06-29T07:38:39.516Z,23.15
2017-06-29T07:39:48.676Z,23.1
2017-06-29T07:40:57.971Z,23.05
2017-06-29T07:42:07.180Z,23.01
2017-06-29T07:43:16.275Z,22.95
2017-06-29T07:44:25.228Z,22.97
2017-06-29T07:45:34.437Z,22.9
2017-06-29T07:46:43.723Z,22.9
2017-06-29T07:47:52.992Z,22.92
2017-06-29T07:49:02.187Z,22.85
2017-06-29T07:50:11.327Z,22.8
2017-06-29T07:51:20.276Z,22.82
2017-06-29T07:52:29.715Z,22.75
2017-06-29T07:53:38.993Z,22.8
2017-06-29T07:54:48.265Z,22.64
2017-06-29T07:55:58.002Z,22.72
2017-06-29T07:57:07.477Z,22.73
2017-06-29T07:58:16.943Z,22.75
2017-06-29T07:59:25.925Z,22.73
2017-06-29T08:00:35.202Z,22.7
2017-06-29T08:01:44.160Z,22.75
2017-06-29T08:02:53.140Z,22.67
2017-06-29T08:04:02.433Z,22.68
2017-06-29T08:05:11.400Z,22.57
2017-06-29T08:06:20.351Z,22.58
2017-06-29T08:07:29.309Z,22.58
2017-06-29T08:08:38.504Z,22.6
2017-06-29T08:09:47.883Z,22.51
2017-06-29T08:10:56.924Z,22.46
2017-06-29T08:12:06.054Z,22.45
2017-06-29T08:13:15.047Z,22.49
2017-06-29T08:14:24.000Z,22.43
2017-06-29T08:15:33.375Z,22.49
2017-06-29T08:16:42.418Z,22.39
2017-06-29T08:17:51.376Z,22.4
2017-06-29T08:19:00.328Z,22.4
2017-06-29T08:20:09.280Z,22.37
2017-06-29T08:21:18.543Z,22.36
2017-06-29T08:22:27.503Z,22.27
2017-06-29T08:23:36.464Z,22.35
2017-06-29T08:24:45.418Z,22.21
2017-06-29T08:25:54.365Z,22.25
2017-06-29T08:27:04.002Z,22.27
2017-06-29T08:28:13.591Z,22.35
2017-06-29T08:29:22.534Z,22.33
2017-06-29T08:30:31.479Z,22.3
2017-06-29T08:31:40.439Z,22.22
2017-06-29T08:32:49.641Z,22.36
2017-06-29T08:33:58.597Z,22.25
2017-06-29T08:35:07.553Z,22.33
2017-06-29T08:36:16.508Z,22.22
2017-06-29T08:37:25.510Z,22.25
2017-06-29T08:38:34.763Z,22.25
2017-06-29T08:39:43.703Z,22.24
2017-06-29T08:40:52.784Z,22.2
2017-06-29T08:42:01.742Z,22.18
2017-06-29T08:43:10.768Z,22.17
2017-06-29T08:44:19.968Z,22.14
2017-06-29T08:45:28.916Z,22.14
2017-06-29T08:46:37.871Z,22.17
2017-06-29T08:47:47.037Z,22.07
2017-06-29T08:48:56.044Z,22.06
2017-06-29T08:50:05.369Z,22.12
2017-06-29T08:51:14.324Z,22.12
2017-06-29T08:52:23.276Z,22.09
2017-06-29T08:53:32.348Z,22.07
2017-06-29T08:54:41.380Z,22.07
2017-06-29T08:55:50.745Z,22.05
2017-06-29T08:56:59.926Z,22.12
2017-06-29T08:58:09.225Z,22.09
2017-06-29T08:59:18.322Z,22.09
2017-06-29T09:00:27.508Z,22.05
2017-06-29T09:01:36.942Z,22.02
2017-06-29T09:02:45.895Z,22
2017-06-29T09:03:54.993Z,22.02
2017-06-29T09:05:04.107Z,21.98
2017-06-29T09:06:13.064Z,21.96
2017-06-29T09:07:22.344Z,21.91
2017-06-29T09:08:31.296Z,21.91
2017-06-29T09:09:40.261Z,21.91
2017-06-29T09:10:49.761Z,21.9
2017-06-29T09:11:58.719Z,21.92
2017-06-29T09:13:07.925Z,21.88
2017-06-29T09:14:16.870Z,21.88
2017-06-29T09:15:25.827Z,21.86
2017-06-29T09:16:34.865Z,21.84
2017-06-29T09:17:43.817Z,21.88
2017-06-29T09:18:53.164Z,21.83
2017-06-29T09:20:02.116Z,21.83
2017-06-29T09:21:11.073Z,21.86
2017-06-29T09:22:20.025Z,21.86
2017-06-29T09:23:29.301Z,21.91
2017-06-29T09:24:38.552Z,21.82
2017-06-29T09:25:47.508Z,21.91
2017-06-29T09:26:56.461Z,21.84
2017-06-29T09:28:05.415Z,21.94
2017-06-29T09:29:14.368Z,21.84
2017-06-29T09:30:23.572Z,21.9
2017-06-29T09:31:32.527Z,21.88
2017-06-29T09:32:41.480Z,21.8
2017-06-29T09:33:50.431Z,21.9
2017-06-29T09:34:59.461Z,21.9
2017-06-29T09:36:08.667Z,21.82
2017-06-29T09:37:17.619Z,21.9
2017-06-29T09:38:26.573Z,21.86
2017-06-29T09:39:35.515Z,21.83
2017-06-29T09:40:44.547Z,21.82
2017-06-29T09:41:53.746Z,21.79
2017-06-29T09:43:02.702Z,21.82
2017-06-29T09:44:11.682Z,21.79
2017-06-29T09:45:20.634Z,21.71
2017-06-29T09:46:29.583Z,21.74
2017-06-29T09:47:38.781Z,21.72
2017-06-29T09:48:47.733Z,21.61
2017-06-29T09:49:56.680Z,21.59
2017-06-29T09:51:05.624Z,21.49
2017-06-29T09:52:14.569Z,21.47
2017-06-29T09:53:23.783Z,21.38
2017-06-29T09:54:32.731Z,21.25
2017-06-29T09:55:41.678Z,21.1
2017-06-29T09:56:50.632Z,20.99
2017-06-29T09:57:59.580Z,20.87
2017-06-29T09:59:09.219Z,20.87
2017-06-29T10:00:18.176Z,20.74
2017-06-29T10:01:27.121Z,20.72
2017-06-29T10:02:36.074Z,20.67
2017-06-29T10:03:45.117Z,20.61
2017-06-29T10:04:54.318Z,20.61
2017-06-29T10:06:03.268Z,20.64
2017-06-29T10:07:12.220Z,20.61
2017-06-29T10:08:21.165Z,20.64
2017-06-29T10:09:30.109Z,20.52
2017-06-29T10:10:39.302Z,20.52
2017-06-29T10:11:48.288Z,20.57
2017-06-29T10:12:57.236Z,20.52
2017-06-29T10:14:06.530Z,20.51
2017-06-29T10:15:15.556Z,20.58
2017-06-29T10:16:24.752Z,20.62
2017-06-29T10:17:33.745Z,20.61
2017-06-29T10:18:42.681Z,20.67
2017-06-29T10:19:51.632Z,20.62
2017-06-29T10:21:00.694Z,20.62
2017-06-29T10:22:10.059Z,20.59
2017-06-29T10:23:19.081Z,20.5
2017-06-29T10:24:28.029Z,20.5
2017-06-29T10:25:36.985Z,20.54
2017-06-29T10:26:46.025Z,20.51
2017-06-29T10:27:55.783Z,20.52
2017-06-29T10:29:04.827Z,20.51
2017-06-29T10:30:13.784Z,20.52
2017-06-29T10:31:22.734Z,20.48
2017-06-29T10:32:31.690Z,20.47
2017-06-29T10:33:40.976Z,20.36
2017-06-29T10:34:49.931Z,20.33
2017-06-29T10:35:58.888Z,20.33
2017-06-29T10:37:07.841Z,20.33
2017-06-29T10:38:16.787Z,20.29
2017-06-29T10:39:26.021Z,20.21
2017-06-29T10:40:34.975Z,20.2
2017-06-29T10:41:43.925Z,20.2
2017-06-29T10:42:52.865Z,20.17
2017-06-29T10:44:01.807Z,20.16
2017-06-29T10:45:11.056Z,20.16
2017-06-29T10:46:20.010Z,20.16
2017-06-29T10:47:28.956Z,20.18
2017-06-29T10:48:37.917Z,20.2
2017-06-29T10:49:46.880Z,20.16
2017-06-29T10:50:56.076Z,20.17
2017-06-29T10:52:05.099Z,20.21
2017-06-29T10:53:14.053Z,20.13
2017-06-29T10:54:23.001Z,20.2
2017-06-29T10:55:32.035Z,20.17
2017-06-29T10:56:41.382Z,20.16
2017-06-29T10:57:50.333Z,20.16
2017-06-29T10:58:59.281Z,20.14
2017-06-29T11:00:08.911Z,20.14
2017-06-29T11:01:18.000Z,20.14
2017-06-29T11:02:27.264Z,20.13
2017-06-29T11:03:36.297Z,20.21
2017-06-29T11:04:45.329Z,20.18
2017-06-29T11:05:54.287Z,20.23
2017-06-29T11:07:03.559Z,20.24
2017-06-29T11:08:13.129Z,20.17
2017-06-29T11:09:22.138Z,20.26
2017-06-29T11:10:31.150Z,20.32
2017-06-29T11:11:40.422Z,20.21
2017-06-29T11:12:49.678Z,20.28
2017-06-29T11:13:59.088Z,20.26
2017-06-29T11:15:08.159Z,20.31
2017-06-29T11:16:17.111Z,20.31
2017-06-29T11:17:26.160Z,20.33
2017-06-29T11:18:35.132Z,20.29
2017-06-29T11:19:44.497Z,20.35
2017-06-29T11:20:53.449Z,20.33
2017-06-29T11:22:02.479Z,20.42
2017-06-29T11:23:11.474Z,20.38
2017-06-29T11:24:20.421Z,20.33
2017-06-29T11:25:29.698Z,20.47
2017-06-29T11:26:38.764Z,20.42
2017-06-29T11:27:47.717Z,20.35
2017-06-29T11:28:56.670Z,20.41
2017-06-29T11:30:05.647Z,20.38
2017-06-29T11:31:15.444Z,20.35
2017-06-29T11:32:24.468Z,20.48
2017-06-29T11:33:33.589Z,20.42
2017-06-29T11:34:42.791Z,20.41
2017-06-29T11:35:51.947Z,20.48
2017-06-29T11:37:01.143Z,20.41
2017-06-29T11:38:10.168Z,20.43
2017-06-29T11:39:19.117Z,20.47
2017-06-29T11:40:28.117Z,20.42
2017-06-29T11:41:37.250Z,20.39
2017-06-29T11:42:46.605Z,20.48
2017-06-29T11:43:55.585Z,20.39
2017-06-29T11:45:04.529Z,20.32
2017-06-29T11:46:13.481Z,20.36
2017-06-29T11:47:22.428Z,20.36
2017-06-29T11:48:31.639Z,20.42
2017-06-29T11:49:40.580Z,20.41
2017-06-29T11:50:49.526Z,20.32
2017-06-29T11:51:58.469Z,20.42
2017-06-29T11:53:07.417Z,20.36
2017-06-29T11:54:16.620Z,20.29
2017-06-29T11:55:25.571Z,20.32
2017-06-29T11:56:34.525Z,20.21
2017-06-29T11:57:43.797Z,20.13
2017-06-29T11:58:52.745Z,19.96
2017-06-29T12:00:01.944Z,20.03
2017-06-29T12:01:11.239Z,19.91
2017-06-29T12:02:20.246Z,19.87
2017-06-29T12:03:29.477Z,19.8
2017-06-29T12:04:38.427Z,19.76
2017-06-29T12:05:47.970Z,19.78
2017-06-29T12:06:57.001Z,19.78
2017-06-29T12:08:05.959Z,19.74
2017-06-29T12:09:14.904Z,19.71
2017-06-29T12:10:24.080Z,19.71
2017-06-29T12:11:33.329Z,19.74
2017-06-29T12:12:42.279Z,19.78
2017-06-29T12:13:51.225Z,19.73
2017-06-29T12:15:00.185Z,19.71
2017-06-29T12:16:09.148Z,19.77
2017-06-29T12:17:18.422Z,19.87
2017-06-29T12:18:27.437Z,19.91
2017-06-29T12:19:36.390Z,19.87
2017-06-29T12:20:45.341Z,19.87
2017-06-29T12:21:54.322Z,19.94
2017-06-29T12:23:03.646Z,19.81
2017-06-29T12:24:12.608Z,19.98
2017-06-29T12:25:21.559Z,19.99
2017-06-29T12:26:30.554Z,19.98
2017-06-29T12:27:39.504Z,20.02
2017-06-29T12:28:48.774Z,20.05
2017-06-29T12:29:57.794Z,20.05
2017-06-29T12:31:06.824Z,20.06
2017-06-29T12:32:16.052Z,20.08
2017-06-29T12:33:25.116Z,20.08
2017-06-29T12:34:34.305Z,20.06
2017-06-29T12:35:43.359Z,19.98
2017-06-29T12:36:52.408Z,20.01
2017-06-29T12:38:01.404Z,20.05
2017-06-29T12:39:10.433Z,20.05
2017-06-29T12:40:19.951Z,20.11
2017-06-29T12:41:29.278Z,20.01
2017-06-29T12:42:38.433Z,19.98
2017-06-29T12:43:47.517Z,19.99
2017-06-29T12:44:56.556Z,19.96
2017-06-29T12:46:05.818Z,19.88
2017-06-29T12:47:14.761Z,19.91
2017-06-29T12:48:23.796Z,19.86
2017-06-29T12:49:32.797Z,19.87
2017-06-29T12:50:41.790Z,19.98
2017-06-29T12:51:51.041Z,20.06
2017-06-29T12:52:59.985Z,19.87
2017-06-29T12:54:08.940Z,19.88
2017-06-29T12:55:17.886Z,19.91
2017-06-29T12:56:26.830Z,19.81
2017-06-29T12:57:36.039Z,19.91
2017-06-29T12:58:44.980Z,19.91
2017-06-29T12:59:53.928Z,19.84
2017-06-29T13:01:02.875Z,19.86
2017-06-29T13:02:11.821Z,19.87
2017-06-29T13:03:21.016Z,19.83
2017-06-29T13:04:29.959Z,19.77
2017-06-29T13:05:38.904Z,19.74
2017-06-29T13:06:47.852Z,19.76
2017-06-29T13:07:56.796Z,19.74
2017-06-29T13:09:09.124Z,19.74
2017-06-29T13:10:29.466Z,19.74
2017-06-29T13:11:45.471Z,19.76
2017-06-29T13:13:06.907Z,19.76
2017-06-29T13:14:29.694Z,19.8
2017-06-29T13:15:50.866Z,19.76
2017-06-29T13:17:07.519Z,19.76
2017-06-29T13:18:25.496Z,19.76
2017-06-29T13:19:34.727Z,19.76
2017-06-29T13:20:43.700Z,19.77
2017-06-29T13:21:52.668Z,19.86
2017-06-29T13:23:01.645Z,19.76
2017-06-29T13:24:10.624Z,19.73
2017-06-29T13:25:19.842Z,19.92
2017-06-29T13:26:28.824Z,19.91
2017-06-29T13:27:37.798Z,19.88
2017-06-29T13:28:46.856Z,19.99
2017-06-29T13:29:55.823Z,19.88
2017-06-29T13:31:05.061Z,19.92
2017-06-29T13:32:14.031Z,19.86
2017-06-29T13:33:23.003Z,19.92
2017-06-29T13:34:31.974Z,19.99
2017-06-29T13:35:40.962Z,19.88
2017-06-29T13:36:50.253Z,19.98
2017-06-29T13:37:59.219Z,20.01
2017-06-29T13:39:08.284Z,20.13
2017-06-29T13:40:17.339Z,19.99
2017-06-29T13:41:26.313Z,20.06
2017-06-29T13:42:35.538Z,20.01
2017-06-29T13:43:44.508Z,20.17
2017-06-29T13:44:53.473Z,20.17
2017-06-29T13:46:02.446Z,20.17
2017-06-29T13:47:11.419Z,20.18
2017-06-29T13:48:20.645Z,20.26
2017-06-29T13:49:29.658Z,20.18
2017-06-29T13:50:38.692Z,20.17
2017-06-29T13:51:47.720Z,20.18
2017-06-29T13:52:56.697Z,20.23
2017-06-29T13:54:05.921Z,20.16
2017-06-29T13:55:14.908Z,20.28
2017-06-29T13:56:23.968Z,20.21
2017-06-29T13:57:32.971Z,20.2
2017-06-29T13:58:41.939Z,20.14
2017-06-29T13:59:51.168Z,20.13
2017-06-29T14:01:00.139Z,20.2
2017-06-29T14:02:09.119Z,20.17
2017-06-29T14:03:18.089Z,20.05
2017-06-29T14:04:27.055Z,20.02
2017-06-29T14:05:36.335Z,20.02
2017-06-29T14:06:45.301Z,19.99
2017-06-29T14:07:54.286Z,19.95
2017-06-29T14:09:03.254Z,19.99
2017-06-29T14:10:12.236Z,19.91
2017-06-29T14:11:21.457Z,19.86
2017-06-29T14:12:30.437Z,19.86
2017-06-29T14:13:39.408Z,19.87
2017-06-29T14:14:48.385Z,19.86
2017-06-29T14:15:57.353Z,19.88
2017-06-29T14:17:06.581Z,19.76
2017-06-29T14:18:15.554Z,19.84
2017-06-29T14:19:24.518Z,19.76
2017-06-29T14:20:33.495Z,19.77
2017-06-29T14:21:42.475Z,19.71
2017-06-29T14:22:51.709Z,19.78
2017-06-29T14:24:00.759Z,19.73
2017-06-29T14:25:09.737Z,19.76
2017-06-29T14:26:18.717Z,19.69
2017-06-29T14:27:27.696Z,19.76
2017-06-29T14:28:36.918Z,19.76
2017-06-29T14:29:45.884Z,19.62
2017-06-29T14:30:55.186Z,19.66
2017-06-29T14:32:04.163Z,19.61
2017-06-29T14:33:13.554Z,19.69
2017-06-29T14:34:22.779Z,19.68
2017-06-29T14:35:31.760Z,19.63
2017-06-29T14:36:40.725Z,19.62
2017-06-29T14:37:49.702Z,19.63
2017-06-29T14:38:58.671Z,19.55
2017-06-29T14:40:07.956Z,19.5
2017-06-29T14:41:16.931Z,19.48
2017-06-29T14:42:25.896Z,19.5
2017-06-29T14:43:34.863Z,19.44
2017-06-29T14:44:43.837Z,19.51
2017-06-29T14:45:53.055Z,19.39
2017-06-29T14:47:02.026Z,19.43
2017-06-29T14:48:10.994Z,19.46
2017-06-29T14:49:19.981Z,19.47
2017-06-29T14:50:28.942Z,19.39
2017-06-29T14:51:38.166Z,19.37
2017-06-29T14:52:47.246Z,19.41